Temperatur und Luftfeuchte

Temperatur und Luftfeuchte

Die letzten 100 Messwerte

Nummer Datum und Zeit Sensor ID Temperatur in Celsius gef├╝hlte Temperatur Luftfeuchte in %
30442 2020-08-10 10:35:17 Terrasse 27.50 28.68 59.30
30441 2020-08-10 10:06:49 Terrasse 26.50 27.54 61.20
30440 2020-08-10 09:38:29 Terrasse 26.00 26.94 60.40
30439 2020-08-10 09:10:10 Terrasse 26.00 26.97 61.30
30438 2020-08-10 08:41:48 Terrasse 25.70 25.91 60.70
30437 2020-08-10 08:13:25 Terrasse 25.20 25.43 63.50
30436 2020-08-10 07:45:05 Terrasse 24.90 25.13 64.40
30435 2020-08-10 07:16:45 Terrasse 24.90 25.06 61.80
30434 2020-08-10 06:48:24 Terrasse 24.70 24.80 60.30
30433 2020-08-10 06:20:04 Terrasse 24.70 24.76 58.60
30432 2020-08-10 05:51:45 Terrasse 24.80 24.84 57.80
30431 2020-08-10 05:23:27 Terrasse 24.90 24.95 57.70
30430 2020-08-10 04:55:08 Terrasse 25.30 25.36 56.60
30429 2020-08-10 04:26:49 Terrasse 25.40 25.46 56.00
30428 2020-08-10 03:58:29 Terrasse 25.40 25.45 55.70
30427 2020-08-10 03:30:12 Terrasse 25.80 25.87 55.00
30426 2020-08-10 03:01:55 Terrasse 26.20 26.86 53.40
30425 2020-08-10 02:33:38 Terrasse 26.60 27.21 53.00
30424 2020-08-10 02:05:20 Terrasse 27.20 27.67 50.90
30423 2020-08-10 01:37:01 Terrasse 27.20 27.60 49.80
30422 2020-08-10 01:08:40 Terrasse 27.40 27.82 50.20
30421 2020-08-10 00:40:22 Terrasse 27.50 27.80 48.50
30420 2020-08-10 00:12:05 Terrasse 27.80 27.99 47.00
30419 2020-08-09 23:43:44 Terrasse 28.00 28.17 46.80
30418 2020-08-09 23:15:25 Terrasse 28.10 28.27 46.70
30417 2020-08-09 22:47:06 Terrasse 28.20 28.17 44.30
30416 2020-08-09 22:18:47 Terrasse 28.50 28.54 45.00
30415 2020-08-09 21:50:26 Terrasse 28.60 28.64 44.90
30414 2020-08-09 21:22:10 Terrasse 28.50 28.53 44.90
30413 2020-08-09 20:53:48 Terrasse 28.50 28.76 47.30
30412 2020-08-09 20:25:36 Terrasse 28.80 29.31 49.20
30411 2020-08-09 19:57:18 Terrasse 29.40 30.18 49.90
30410 2020-08-09 19:29:25 Terrasse 30.30 31.59 50.50
30409 2020-08-09 18:56:57 Terrasse 31.60 32.43 44.10
30408 2020-08-09 18:28:41 Terrasse 32.10 33.41 45.00
30407 2020-08-09 18:00:25 Terrasse 32.90 34.67 44.60
30406 2020-08-09 17:32:12 Terrasse 34.10 36.65 43.80
30405 2020-08-09 17:03:56 Terrasse 34.80 36.88 40.10
30404 2020-08-09 16:35:41 Terrasse 35.60 39.07 42.10
30403 2020-08-09 16:07:30 Terrasse 36.50 39.19 37.30
30402 2020-08-09 14:42:59 Terrasse 36.70 39.98 38.40
30401 2020-08-09 14:14:41 Terrasse 37.10 40.95 38.80
30400 2020-08-09 13:46:35 Terrasse 38.00 42.88 38.80
30399 2020-08-09 13:18:16 Terrasse 38.50 44.29 39.40
30398 2020-08-09 12:49:30 Terrasse 35.80 39.73 42.80
30397 2020-08-09 12:21:13 Terrasse 33.80 36.68 45.90
30396 2020-08-09 11:53:07 Terrasse 33.80 37.13 47.40
30395 2020-08-09 11:24:59 Terrasse 32.30 35.02 50.40
30394 2020-08-09 10:57:04 Terrasse 30.40 32.48 54.50
30393 2020-08-09 10:27:56 Terrasse 28.70 30.27 58.10
30392 2020-08-09 09:59:29 Terrasse 27.30 28.84 64.30
30391 2020-08-09 09:31:03 Terrasse 26.30 27.62 67.70
30390 2020-08-09 09:02:38 Terrasse 25.40 25.71 65.60
30389 2020-08-09 08:34:13 Terrasse 24.50 24.75 66.70
30388 2020-08-09 08:05:52 Terrasse 24.00 24.26 69.20
30387 2020-08-09 07:37:32 Terrasse 23.70 23.87 66.80
30386 2020-08-09 07:09:14 Terrasse 23.60 23.63 61.80
30385 2020-08-09 06:40:56 Terrasse 23.80 23.78 59.20
30384 2020-08-09 06:12:37 Terrasse 24.20 24.17 57.20
30383 2020-08-09 05:44:19 Terrasse 24.40 24.37 56.30
30382 2020-08-09 05:16:01 Terrasse 24.70 24.68 55.80
30381 2020-08-09 04:47:43 Terrasse 24.90 24.89 55.40
30380 2020-08-09 04:19:24 Terrasse 25.20 25.22 55.20
30379 2020-08-09 03:51:06 Terrasse 25.40 25.42 54.70
30378 2020-08-09 03:22:47 Terrasse 25.60 25.61 53.40
30377 2020-08-09 02:54:28 Terrasse 25.80 25.82 53.10
30376 2020-08-09 02:26:12 Terrasse 26.20 26.82 52.40
30375 2020-08-09 01:57:55 Terrasse 26.40 26.95 51.40
30374 2020-08-09 01:29:37 Terrasse 26.70 27.21 51.30
30373 2020-08-09 01:01:17 Terrasse 26.90 27.31 49.80
30372 2020-08-09 00:32:59 Terrasse 27.10 27.51 49.90
30371 2020-08-09 00:04:45 Terrasse 27.40 27.77 49.50
30370 2020-08-08 23:37:09 Terrasse 27.80 28.21 49.80
30369 2020-08-08 23:06:47 Terrasse 28.10 28.56 50.00
30368 2020-08-08 22:36:36 Terrasse 28.40 29.14 52.20
30367 2020-08-08 22:08:32 Terrasse 28.90 29.55 50.20
30366 2020-08-08 21:37:57 Terrasse 29.50 30.25 49.40
30365 2020-08-08 21:09:41 Terrasse 30.20 31.20 49.10
30364 2020-08-08 20:41:26 Terrasse 30.80 32.25 49.80
30363 2020-08-08 20:13:10 Terrasse 31.50 33.27 49.10
30362 2020-08-08 19:44:53 Terrasse 31.90 33.08 45.00
30361 2020-08-08 19:16:37 Terrasse 32.40 33.14 41.40
30360 2020-08-08 18:48:20 Terrasse 32.90 34.08 42.10
30359 2020-08-08 18:20:02 Terrasse 33.30 34.42 40.70
30358 2020-08-08 17:51:45 Terrasse 33.70 35.66 42.90
30357 2020-08-08 17:23:28 Terrasse 34.20 35.85 40.30
30356 2020-08-08 16:55:12 Terrasse 35.00 37.40 40.60
30355 2020-08-08 16:26:55 Terrasse 34.60 36.26 39.20
30354 2020-08-08 15:58:37 Terrasse 35.10 37.37 39.90
30353 2020-08-08 15:30:18 Terrasse 35.70 38.42 39.60
30352 2020-08-08 15:02:01 Terrasse 35.50 38.52 41.10
30351 2020-08-08 14:33:46 Terrasse 36.00 39.64 41.40
30350 2020-08-08 14:05:34 Terrasse 36.50 40.24 40.20
30349 2020-08-08 13:37:28 Terrasse 37.30 41.09 38.10
30348 2020-08-08 13:08:57 Terrasse 37.40 42.86 41.80
30347 2020-08-08 12:40:06 Terrasse 33.40 36.78 48.90
30346 2020-08-08 12:11:53 Terrasse 33.00 35.73 48.00
30345 2020-08-08 11:43:27 Terrasse 32.20 34.81 50.30
30344 2020-08-08 11:14:56 Terrasse 30.70 32.93 54.10
30343 2020-08-08 10:46:18 Terrasse 28.70 30.59 60.40